createdAt,value
2022-12-04T00:00:13.168Z,10.70
2022-12-04T00:02:40.416Z,9.90
2022-12-04T00:05:08.866Z,10.20
2022-12-04T00:07:35.751Z,9.97
2022-12-04T00:10:02.302Z,9.90
2022-12-04T00:12:29.001Z,8.87
2022-12-04T00:17:41.847Z,9.63
2022-12-04T00:20:08.803Z,9.77
2022-12-04T00:22:35.431Z,10.30
2022-12-04T00:25:01.806Z,11.30
2022-12-04T00:27:28.231Z,9.83
2022-12-04T00:29:54.741Z,10.40
2022-12-04T00:32:21.322Z,9.90
2022-12-04T00:34:47.759Z,9.77
2022-12-04T00:37:14.140Z,9.50
2022-12-04T00:39:40.526Z,9.40
2022-12-04T00:42:06.888Z,9.03
2022-12-04T00:44:33.317Z,9.23
2022-12-04T00:46:59.705Z,8.50
2022-12-04T00:49:26.092Z,9.40
2022-12-04T00:51:52.476Z,8.87
2022-12-04T00:54:18.861Z,7.90
2022-12-04T00:56:45.363Z,8.00
2022-12-04T00:59:11.843Z,7.80
2022-12-04T01:01:38.418Z,8.23
2022-12-04T01:04:04.962Z,7.90
2022-12-04T01:06:33.943Z,7.87
2022-12-04T01:09:03.262Z,7.87
2022-12-04T01:11:30.337Z,8.13
2022-12-04T01:13:57.355Z,7.30
2022-12-04T01:16:30.201Z,7.80
2022-12-04T01:18:56.924Z,8.20
2022-12-04T01:21:23.319Z,9.00
2022-12-04T01:23:49.867Z,10.53
2022-12-04T01:26:16.492Z,7.30
2022-12-04T01:28:43.296Z,8.47
2022-12-04T01:31:13.688Z,8.80
2022-12-04T01:33:41.375Z,8.70
2022-12-04T01:36:10.737Z,8.77
2022-12-04T01:38:38.242Z,7.80
2022-12-04T01:41:05.674Z,8.40
2022-12-04T01:43:34.321Z,7.77
2022-12-04T01:46:02.122Z,7.90
2022-12-04T01:48:44.126Z,8.37
2022-12-04T01:51:22.725Z,7.47
2022-12-04T01:54:02.200Z,8.60
2022-12-04T01:56:37.998Z,7.50
2022-12-04T01:59:07.213Z,7.87
2022-12-04T02:01:40.437Z,8.63
2022-12-04T02:04:06.927Z,8.13
2022-12-04T02:06:33.345Z,7.37
2022-12-04T02:09:00.117Z,7.83
2022-12-04T02:11:43.661Z,8.50
2022-12-04T02:14:19.095Z,7.83
2022-12-04T02:16:54.208Z,8.60
2022-12-04T02:19:37.257Z,8.40
2022-12-04T02:22:14.705Z,7.87
2022-12-04T02:24:49.666Z,6.87
2022-12-04T02:27:40.831Z,8.13
2022-12-04T02:30:13.057Z,7.77
2022-12-04T02:32:47.280Z,7.53
2022-12-04T02:35:22.067Z,8.07
2022-12-04T02:37:56.627Z,7.20
2022-12-04T02:40:38.846Z,8.00
2022-12-04T02:43:30.282Z,8.07
2022-12-04T02:46:03.009Z,7.53
2022-12-04T02:48:33.263Z,12.43
2022-12-04T02:51:01.915Z,8.83
2022-12-04T02:53:36.207Z,9.30
2022-12-04T02:56:08.081Z,9.10
2022-12-04T02:58:41.640Z,8.73
2022-12-04T03:01:22.033Z,8.30
2022-12-04T03:03:51.270Z,9.20
2022-12-04T03:06:20.297Z,7.83
2022-12-04T03:08:54.507Z,8.23
2022-12-04T03:11:20.904Z,7.60
2022-12-04T03:13:58.133Z,6.40
2022-12-04T03:16:36.118Z,7.93
2022-12-04T03:19:10.048Z,7.43
2022-12-04T03:21:41.434Z,7.53
2022-12-04T03:24:40.261Z,7.73
2022-12-04T03:27:18.917Z,8.30
2022-12-04T03:29:57.712Z,8.10
2022-12-04T03:32:31.029Z,7.60
2022-12-04T03:35:12.411Z,7.93
2022-12-04T03:37:54.520Z,7.80
2022-12-04T03:40:33.405Z,7.57
2022-12-04T03:43:12.170Z,7.90
2022-12-04T03:46:14.578Z,8.20
2022-12-04T03:48:48.001Z,7.70
2022-12-04T03:51:36.463Z,7.50
2022-12-04T03:54:09.507Z,7.77
2022-12-04T03:56:44.994Z,7.10
2022-12-04T03:59:17.816Z,8.30
2022-12-04T04:01:48.901Z,8.50
2022-12-04T04:04:21.298Z,7.87
2022-12-04T04:06:54.433Z,8.47
2022-12-04T04:09:25.270Z,9.00
2022-12-04T04:12:05.076Z,14.40
2022-12-04T04:15:00.900Z,13.80
2022-12-04T04:18:08.538Z,13.10
2022-12-04T04:21:03.912Z,36.60
2022-12-04T04:23:54.376Z,22.20
2022-12-04T04:26:22.927Z,19.50
2022-12-04T04:28:49.395Z,16.27
2022-12-04T04:31:41.848Z,13.23
2022-12-04T04:34:11.213Z,10.73
2022-12-04T04:37:05.747Z,10.10
2022-12-04T04:39:44.763Z,8.93
2022-12-04T04:42:40.287Z,9.03
2022-12-04T04:45:28.156Z,8.60
2022-12-04T04:48:00.557Z,8.60
2022-12-04T04:50:27.869Z,8.80
2022-12-04T04:52:58.890Z,8.80
2022-12-04T04:55:25.647Z,8.83
2022-12-04T04:57:52.067Z,8.90
2022-12-04T05:00:21.730Z,9.23
2022-12-04T05:02:50.202Z,9.23
2022-12-04T05:05:17.491Z,8.63
2022-12-04T05:07:44.025Z,8.00
2022-12-04T05:10:10.930Z,8.57
2022-12-04T05:12:37.345Z,8.60
2022-12-04T05:15:04.126Z,9.90
2022-12-04T05:17:30.603Z,8.37
2022-12-04T05:19:57.903Z,9.37
2022-12-04T05:22:29.653Z,9.57
2022-12-04T05:24:56.121Z,9.30
2022-12-04T05:27:23.393Z,10.20
2022-12-04T05:29:53.155Z,10.37
2022-12-04T05:32:20.393Z,8.70
2022-12-04T05:34:51.124Z,8.57
2022-12-04T05:37:18.069Z,9.00
2022-12-04T05:39:45.137Z,9.20
2022-12-04T05:42:12.394Z,10.50
2022-12-04T05:44:39.212Z,9.70
2022-12-04T05:47:06.524Z,10.00
2022-12-04T05:49:34.437Z,9.67
2022-12-04T05:52:04.050Z,9.17
2022-12-04T05:54:30.903Z,10.30
2022-12-04T05:56:57.357Z,8.60
2022-12-04T05:59:23.916Z,8.97
2022-12-04T06:01:50.576Z,9.00
2022-12-04T06:04:17.255Z,9.13
2022-12-04T06:06:43.794Z,9.73
2022-12-04T06:09:11.545Z,9.33
2022-12-04T06:11:40.133Z,9.10
2022-12-04T06:14:09.150Z,9.30
2022-12-04T06:16:38.216Z,9.20
2022-12-04T06:19:15.105Z,10.20
2022-12-04T06:21:43.074Z,10.03
2022-12-04T06:24:13.995Z,9.67
2022-12-04T06:26:57.559Z,9.83
2022-12-04T06:29:26.840Z,8.70
2022-12-04T06:31:53.451Z,9.30
2022-12-04T06:34:19.941Z,9.10
2022-12-04T06:36:46.391Z,9.30
2022-12-04T06:39:17.005Z,8.93
2022-12-04T06:41:45.250Z,9.20
2022-12-04T06:44:11.662Z,9.90
2022-12-04T06:46:43.523Z,9.70
2022-12-04T06:49:12.880Z,9.67
2022-12-04T06:51:40.708Z,10.70
2022-12-04T06:54:07.264Z,12.57
2022-12-04T06:56:34.021Z,11.50
2022-12-04T06:59:02.982Z,11.07
2022-12-04T07:01:31.678Z,10.40
2022-12-04T07:03:59.177Z,11.30
2022-12-04T07:06:28.044Z,10.00
2022-12-04T07:09:00.439Z,11.23
2022-12-04T07:11:27.418Z,10.60
2022-12-04T07:13:55.217Z,12.23
2022-12-04T07:16:22.915Z,11.80
2022-12-04T07:18:56.749Z,11.40
2022-12-04T07:21:29.211Z,10.57
2022-12-04T07:23:58.168Z,10.13
2022-12-04T07:26:25.651Z,10.20
2022-12-04T07:28:52.281Z,11.00
2022-12-04T07:31:21.180Z,9.77
2022-12-04T07:33:48.341Z,9.87
2022-12-04T07:36:17.738Z,9.77
2022-12-04T07:38:44.168Z,11.00
2022-12-04T07:41:11.841Z,10.80
2022-12-04T07:43:38.272Z,12.47
2022-12-04T07:46:07.772Z,8.80
2022-12-04T07:48:34.401Z,11.77
2022-12-04T07:51:18.230Z,13.37
2022-12-04T07:53:46.230Z,13.17
2022-12-04T07:56:14.360Z,11.47
2022-12-04T07:58:41.736Z,12.07
2022-12-04T08:01:10.916Z,10.80
2022-12-04T08:03:43.544Z,12.20
2022-12-04T08:06:11.925Z,10.83
2022-12-04T08:08:38.467Z,10.83
2022-12-04T08:11:10.489Z,10.70
2022-12-04T08:13:37.185Z,11.63
2022-12-04T08:16:05.432Z,10.10
2022-12-04T08:18:32.602Z,10.33
2022-12-04T08:21:23.241Z,10.60
2022-12-04T08:23:51.346Z,9.93
2022-12-04T08:26:19.227Z,9.47
2022-12-04T08:28:45.633Z,10.33
2022-12-04T08:31:15.099Z,9.23
2022-12-04T08:33:43.168Z,11.67
2022-12-04T08:36:12.753Z,10.77
2022-12-04T08:38:39.950Z,11.83
2022-12-04T08:41:08.746Z,10.90
2022-12-04T08:43:35.234Z,8.70
2022-12-04T08:46:08.016Z,11.67
2022-12-04T08:48:34.826Z,10.40
2022-12-04T08:51:03.613Z,11.93
2022-12-04T08:53:31.396Z,11.13
2022-12-04T08:55:57.826Z,10.70
2022-12-04T08:58:24.189Z,12.57
2022-12-04T09:00:50.586Z,13.20
2022-12-04T09:03:18.871Z,10.90
2022-12-04T09:05:46.223Z,11.50
2022-12-04T09:08:16.431Z,12.10
2022-12-04T09:10:43.901Z,10.50
2022-12-04T09:13:10.478Z,11.07
2022-12-04T09:15:39.972Z,11.80
2022-12-04T09:18:07.238Z,10.40
2022-12-04T09:20:34.043Z,12.30
2022-12-04T09:23:04.963Z,10.87
2022-12-04T09:25:34.911Z,11.53
2022-12-04T09:28:01.366Z,10.57
2022-12-04T09:30:27.745Z,11.00
2022-12-04T09:32:54.135Z,11.00
2022-12-04T09:35:20.522Z,11.20
2022-12-04T09:37:46.971Z,11.57
2022-12-04T09:40:37.176Z,10.93
2022-12-04T09:43:26.444Z,10.63
2022-12-04T09:45:55.796Z,11.03
2022-12-04T09:48:26.730Z,10.80
2022-12-04T09:50:54.447Z,10.47
2022-12-04T09:53:35.255Z,11.07
2022-12-04T09:56:06.082Z,11.17
2022-12-04T09:58:41.598Z,10.93
2022-12-04T10:01:20.640Z,10.73
2022-12-04T10:03:47.173Z,10.70
2022-12-04T10:06:23.034Z,11.17
2022-12-04T10:09:14.999Z,12.80
2022-12-04T10:12:10.097Z,10.90
2022-12-04T10:15:00.762Z,10.60
2022-12-04T10:17:34.170Z,11.83
2022-12-04T10:20:16.849Z,11.37
2022-12-04T10:23:07.091Z,12.00
2022-12-04T10:25:38.641Z,11.13
2022-12-04T10:28:39.124Z,11.47
2022-12-04T10:31:12.485Z,11.80
2022-12-04T10:33:47.658Z,10.93
2022-12-04T10:36:18.031Z,11.53
2022-12-04T10:38:58.656Z,11.00
2022-12-04T10:41:35.269Z,13.50
2022-12-04T10:44:01.762Z,13.00
2022-12-04T10:46:33.431Z,11.10
2022-12-04T10:49:06.618Z,12.03
2022-12-04T10:51:41.035Z,11.97
2022-12-04T10:54:21.275Z,12.47
2022-12-04T10:56:56.022Z,11.07
2022-12-04T10:59:23.340Z,11.67
2022-12-04T11:01:52.072Z,12.60
2022-12-04T11:04:25.219Z,13.17
2022-12-04T11:07:02.618Z,11.03
2022-12-04T11:09:29.452Z,12.70
2022-12-04T11:12:09.826Z,12.43
2022-12-04T11:14:36.359Z,10.30
2022-12-04T11:17:05.754Z,9.70
2022-12-04T11:19:36.121Z,11.97
2022-12-04T11:22:14.581Z,10.00
2022-12-04T11:24:42.746Z,10.40
2022-12-04T11:27:21.429Z,11.50
2022-12-04T11:29:48.792Z,9.73
2022-12-04T11:32:22.522Z,10.17
2022-12-04T11:34:51.876Z,10.47
2022-12-04T11:37:26.146Z,11.47
2022-12-04T11:39:54.351Z,9.80
2022-12-04T11:42:27.313Z,10.10
2022-12-04T11:44:56.726Z,11.53
2022-12-04T11:47:27.092Z,10.30
2022-12-04T11:50:13.767Z,11.77
2022-12-04T11:53:18.009Z,9.30
2022-12-04T11:56:16.989Z,9.80
2022-12-04T11:58:51.614Z,9.10
2022-12-04T12:01:24.519Z,10.10
2022-12-04T12:04:20.171Z,9.83
2022-12-04T12:07:06.325Z,8.67
2022-12-04T12:09:47.690Z,10.23
2022-12-04T12:12:41.578Z,9.40
2022-12-04T12:15:27.080Z,9.37
2022-12-04T12:18:41.413Z,9.43
2022-12-04T12:21:15.944Z,9.70
2022-12-04T12:23:56.010Z,8.50
2022-12-04T12:26:29.758Z,9.50
2022-12-04T12:29:40.915Z,9.30
2022-12-04T12:32:22.465Z,8.47
2022-12-04T12:34:49.538Z,9.37
2022-12-04T12:37:41.440Z,8.73
2022-12-04T12:40:23.151Z,9.90
2022-12-04T12:43:15.958Z,9.00
2022-12-04T12:45:52.878Z,9.73
2022-12-04T12:48:40.100Z,9.27
2022-12-04T12:51:30.720Z,9.43
2022-12-04T12:54:12.001Z,9.80
2022-12-04T12:56:47.775Z,8.43
2022-12-04T12:59:24.016Z,8.10
2022-12-04T13:02:26.213Z,9.33
2022-12-04T13:04:55.300Z,7.63
2022-12-04T13:07:42.149Z,7.10
2022-12-04T13:10:26.635Z,6.60
2022-12-04T13:13:08.151Z,7.10
2022-12-04T13:16:02.614Z,12.20
2022-12-04T13:18:52.316Z,7.90
2022-12-04T13:21:43.033Z,9.13
2022-12-04T13:24:40.362Z,9.47
2022-12-04T13:27:17.542Z,9.07
2022-12-04T13:30:02.934Z,8.43
2022-12-04T13:32:40.239Z,8.00
2022-12-04T13:35:24.591Z,8.33
2022-12-04T13:38:09.770Z,7.00
2022-12-04T13:40:44.183Z,6.70
2022-12-04T13:43:28.436Z,7.23
2022-12-04T13:45:58.001Z,6.53
2022-12-04T13:48:43.125Z,6.13
2022-12-04T13:51:37.123Z,6.90
2022-12-04T13:54:12.530Z,6.93
2022-12-04T13:56:41.286Z,7.60
2022-12-04T13:59:23.515Z,7.60
2022-12-04T14:01:54.010Z,7.13
2022-12-04T14:04:23.763Z,7.63
2022-12-04T14:06:52.640Z,8.10
2022-12-04T14:09:26.682Z,7.73
2022-12-04T14:11:59.475Z,7.20
2022-12-04T14:14:42.077Z,6.90
2022-12-04T14:17:25.377Z,7.50
2022-12-04T14:20:05.813Z,7.40
2022-12-04T14:22:34.532Z,7.63
2022-12-04T14:25:13.139Z,7.97
2022-12-04T14:27:44.298Z,8.57
2022-12-04T14:30:20.056Z,8.80
2022-12-04T14:32:49.661Z,7.20
2022-12-04T14:35:20.699Z,7.50
2022-12-04T14:37:54.240Z,6.80
2022-12-04T14:40:34.233Z,6.27
2022-12-04T14:43:00.791Z,7.60
2022-12-04T14:45:48.614Z,7.37
2022-12-04T14:48:28.991Z,8.13
2022-12-04T14:51:32.825Z,8.33
2022-12-04T14:54:20.685Z,7.50
2022-12-04T14:57:14.899Z,8.73
2022-12-04T14:59:41.281Z,8.23
2022-12-04T15:02:15.882Z,8.17
2022-12-04T15:04:46.315Z,9.30
2022-12-04T15:07:25.075Z,9.40
2022-12-04T15:10:12.324Z,10.23
2022-12-04T15:12:49.103Z,10.00
2022-12-04T15:15:19.411Z,11.33
2022-12-04T15:18:02.101Z,12.93
2022-12-04T15:20:39.078Z,11.93
2022-12-04T15:23:06.146Z,12.33
2022-12-04T15:25:43.499Z,11.90
2022-12-04T15:28:19.467Z,12.10
2022-12-04T15:30:47.799Z,12.33
2022-12-04T15:33:21.936Z,12.90
2022-12-04T15:35:55.972Z,11.60
2022-12-04T15:38:22.710Z,12.20
2022-12-04T15:40:52.112Z,11.77
2022-12-04T15:43:38.440Z,13.60
2022-12-04T15:46:21.336Z,13.50
2022-12-04T15:48:48.236Z,13.30
2022-12-04T15:51:16.572Z,15.63
2022-12-04T15:53:45.735Z,14.00
2022-12-04T15:56:21.483Z,12.63
2022-12-04T15:58:59.545Z,13.90
2022-12-04T16:01:26.411Z,12.57
2022-12-04T16:03:55.899Z,13.20
2022-12-04T16:06:34.891Z,13.83
2022-12-04T16:09:20.226Z,12.93
2022-12-04T16:11:46.725Z,12.77
2022-12-04T16:14:13.072Z,13.10
2022-12-04T16:16:43.569Z,13.57
2022-12-04T16:19:17.286Z,12.90
2022-12-04T16:21:44.497Z,13.20
2022-12-04T16:24:13.289Z,12.40
2022-12-04T16:26:40.351Z,12.67
2022-12-04T16:29:06.851Z,13.30
2022-12-04T16:31:33.397Z,12.33
2022-12-04T16:34:00.651Z,13.97
2022-12-04T16:36:27.040Z,13.63
2022-12-04T16:38:53.510Z,13.90
2022-12-04T16:41:21.266Z,12.97
2022-12-04T16:43:57.775Z,14.60
2022-12-04T16:46:27.166Z,12.50
2022-12-04T16:48:54.119Z,12.37
2022-12-04T16:51:25.509Z,12.87
2022-12-04T16:53:52.880Z,13.37
2022-12-04T16:56:19.981Z,14.37
2022-12-04T16:58:46.941Z,12.33
2022-12-04T17:01:36.542Z,12.63
2022-12-04T17:04:03.092Z,13.73
2022-12-04T17:06:31.059Z,13.20
2022-12-04T17:08:57.478Z,11.90
2022-12-04T17:11:23.927Z,12.20
2022-12-04T17:13:50.357Z,12.67
2022-12-04T17:16:19.558Z,12.87
2022-12-04T17:18:46.537Z,14.23
2022-12-04T17:21:13.780Z,14.73
2022-12-04T17:23:40.632Z,14.03
2022-12-04T17:26:10.062Z,13.33
2022-12-04T17:28:36.467Z,14.67
2022-12-04T17:31:05.673Z,13.40
2022-12-04T17:33:32.679Z,12.63
2022-12-04T17:36:00.277Z,15.10
2022-12-04T17:38:27.764Z,13.23
2022-12-04T17:41:01.613Z,14.47
2022-12-04T17:43:31.851Z,15.13
2022-12-04T17:45:58.632Z,14.97
2022-12-04T17:48:26.026Z,15.50
2022-12-04T17:51:07.308Z,14.60
2022-12-04T17:53:33.767Z,15.03
2022-12-04T17:56:10.208Z,13.00
2022-12-04T17:58:36.977Z,16.23
2022-12-04T18:01:10.514Z,14.93
2022-12-04T18:03:37.839Z,13.20
2022-12-04T18:06:22.164Z,15.63
2022-12-04T18:08:50.436Z,15.60
2022-12-04T18:11:20.659Z,16.23
2022-12-04T18:14:12.290Z,14.83
2022-12-04T18:16:42.815Z,14.27
2022-12-04T18:19:11.204Z,15.40
2022-12-04T18:21:37.698Z,16.27
2022-12-04T18:24:04.975Z,14.57
2022-12-04T18:26:37.382Z,15.07
2022-12-04T18:29:04.940Z,16.57
2022-12-04T18:31:31.519Z,16.17
2022-12-04T18:33:58.211Z,15.90
2022-12-04T18:36:26.909Z,17.83
2022-12-04T18:38:55.933Z,16.77
2022-12-04T18:41:23.074Z,19.27
2022-12-04T18:43:49.995Z,19.77
2022-12-04T18:46:17.703Z,17.63
2022-12-04T18:48:45.610Z,16.80
2022-12-04T18:51:15.445Z,15.73
2022-12-04T18:53:41.878Z,17.07
2022-12-04T18:56:08.405Z,16.60
2022-12-04T18:58:34.847Z,17.97
2022-12-04T19:01:19.768Z,16.73
2022-12-04T19:03:47.389Z,18.20
2022-12-04T19:06:14.555Z,18.60
2022-12-04T19:08:43.446Z,18.30
2022-12-04T19:11:15.191Z,17.43
2022-12-04T19:13:42.238Z,19.00
2022-12-04T19:16:16.336Z,16.87
2022-12-04T19:18:45.192Z,17.60
2022-12-04T19:21:12.485Z,19.00
2022-12-04T19:23:38.937Z,18.87
2022-12-04T19:26:05.559Z,21.93
2022-12-04T19:28:32.199Z,17.90
2022-12-04T19:30:58.731Z,18.60
2022-12-04T19:33:25.436Z,18.50
2022-12-04T19:35:58.872Z,22.83
2022-12-04T19:38:25.715Z,20.83
2022-12-04T19:41:03.117Z,20.00
2022-12-04T19:43:29.894Z,19.70
2022-12-04T19:45:56.369Z,19.20
2022-12-04T19:48:22.844Z,21.03
2022-12-04T19:50:49.576Z,20.80
2022-12-04T19:53:15.998Z,22.97
2022-12-04T19:55:42.436Z,19.90
2022-12-04T19:58:08.871Z,24.17
2022-12-04T20:00:35.255Z,24.10
2022-12-04T20:03:01.767Z,22.97
2022-12-04T20:05:28.171Z,21.70
2022-12-04T20:07:55.502Z,20.53
2022-12-04T20:10:22.203Z,20.77
2022-12-04T20:12:48.610Z,20.83
2022-12-04T20:15:15.019Z,20.43
2022-12-04T20:17:41.467Z,21.20
2022-12-04T20:20:09.051Z,21.10
2022-12-04T20:22:36.394Z,21.03
2022-12-04T20:25:03.119Z,20.97
2022-12-04T20:27:29.557Z,22.17
2022-12-04T20:29:56.212Z,20.57
2022-12-04T20:32:22.728Z,22.83
2022-12-04T20:34:49.158Z,21.70
2022-12-04T20:37:15.608Z,20.97
2022-12-04T20:39:42.212Z,21.70
2022-12-04T20:42:08.697Z,23.33
2022-12-04T20:44:35.131Z,21.60
2022-12-04T20:47:01.546Z,19.37
2022-12-04T20:49:27.973Z,20.37
2022-12-04T20:51:54.518Z,21.53
2022-12-04T20:54:23.104Z,20.10
2022-12-04T20:56:51.990Z,21.70
2022-12-04T20:59:20.363Z,21.23
2022-12-04T21:01:48.851Z,19.53
2022-12-04T21:04:17.746Z,20.30
2022-12-04T21:06:46.462Z,21.50
2022-12-04T21:09:16.658Z,21.07
2022-12-04T21:11:49.125Z,21.20
2022-12-04T21:14:43.395Z,21.37
2022-12-04T21:17:14.354Z,22.77
2022-12-04T21:19:40.722Z,21.27
2022-12-04T21:22:07.073Z,18.93
2022-12-04T21:24:38.292Z,21.40
2022-12-04T21:27:07.733Z,21.03
2022-12-04T21:29:34.820Z,21.17
2022-12-04T21:32:01.441Z,21.50
2022-12-04T21:34:27.997Z,20.27
2022-12-04T21:36:54.358Z,21.43
2022-12-04T21:39:23.740Z,20.97
2022-12-04T21:42:09.531Z,21.07
2022-12-04T21:44:35.978Z,21.97
2022-12-04T21:47:02.430Z,20.60
2022-12-04T21:49:28.858Z,20.20
2022-12-04T21:51:57.787Z,20.37
2022-12-04T21:54:25.334Z,16.83
2022-12-04T21:56:51.711Z,20.60
2022-12-04T21:59:18.152Z,19.87
2022-12-04T22:01:44.943Z,20.13
2022-12-04T22:04:11.629Z,20.13
2022-12-04T22:06:38.181Z,20.20
2022-12-04T22:09:07.983Z,20.80
2022-12-04T22:11:34.631Z,20.90
2022-12-04T22:14:01.072Z,18.97
2022-12-04T22:16:30.683Z,19.73
2022-12-04T22:18:59.184Z,19.33
2022-12-04T22:21:27.134Z,18.90
2022-12-04T22:23:57.855Z,18.40
2022-12-04T22:26:25.251Z,19.33
2022-12-04T22:28:52.118Z,20.37
2022-12-04T22:31:21.381Z,19.73
2022-12-04T22:33:50.420Z,20.10
2022-12-04T22:36:22.368Z,20.20
2022-12-04T22:39:10.514Z,21.37
2022-12-04T22:41:35.474Z,21.13
2022-12-04T22:44:01.890Z,22.03
2022-12-04T22:46:28.392Z,20.97
2022-12-04T22:48:54.871Z,19.67
2022-12-04T22:51:22.221Z,19.90
2022-12-04T22:53:53.890Z,18.60
2022-12-04T22:56:23.718Z,18.50
2022-12-04T22:58:50.846Z,20.00
2022-12-04T23:01:21.989Z,17.40
2022-12-04T23:03:49.132Z,18.93
2022-12-04T23:06:17.339Z,19.17
2022-12-04T23:08:45.462Z,18.83
2022-12-04T23:11:15.796Z,18.63
2022-12-04T23:13:42.507Z,19.20
2022-12-04T23:16:10.517Z,16.80
2022-12-04T23:18:38.794Z,19.73
2022-12-04T23:21:13.117Z,18.07
2022-12-04T23:23:40.680Z,17.10
2022-12-04T23:26:09.682Z,18.60
2022-12-04T23:28:36.163Z,17.43
2022-12-04T23:31:03.794Z,18.17
2022-12-04T23:33:31.311Z,16.90
2022-12-04T23:35:59.855Z,18.20
2022-12-04T23:38:27.633Z,17.63
2022-12-04T23:41:03.298Z,17.83
2022-12-04T23:43:29.970Z,17.50
2022-12-04T23:45:56.508Z,19.40
2022-12-04T23:48:23.703Z,17.43
2022-12-04T23:50:50.482Z,16.87
2022-12-04T23:53:17.087Z,18.17
2022-12-04T23:55:43.530Z,17.53
2022-12-04T23:58:10.008Z,19.40
